Decoded Metar for KMFD (MANSFIELD in OH, USA) (IATA:MFD) | Meteo·Mobile Aviation Weather
aviador You're here:

KMFD Decoded Metar

MANSFIELD in OH, USA
Report Time2018-09-23 11:52:00
UTC Time2018-09-23 12:04:17
Flight Rules vfr VFR
Wind040° at 04 kt
W.Decomp.*RWY 05: 4.0 kt HW 0.3 kt LCW
RWY 32: 0.3 kt HW 4.0 kt RCW
W.Rank040° ranks 30
Current wind is below 040° avg. (6.3)
Visibility9999 m
Phenomena:N/A
Clouds:N/A
CeilingNone
Temp09°C (ISA -3)
Dew Point09°C (100% RH)
AAT7.3°C
QNH1022 hPa
Density Alt741 ft
Elevation1,296 ft
Report Wrong Elevation
Raw Report
KMFD 231152Z 04004KT 8SM CLR 09/09 A3019 RMK AO2 SLP224 T00890089
10100 20083 55000=

Extra information for KMFD:More info

Metar Taf Metar & Taf Last 4 Metars F.Rules Stats Wind Profile Meteogram Temp Stats Airport Information Weather charts Add Link Nearby VenuesMetar ALERT Operation Metar Decoded Social comments

AIRNAV info for KMFD